sensor_id;sensor_type;location;lat;lon;timestamp;P1;durP1;ratioP1;P2;durP2;ratioP2
6787;SDS011;3431;47.966;10.268;2023-06-10T00:00:16;5.10;;;4.10;;
6787;SDS011;3431;47.966;10.268;2023-06-10T00:00:39;4.38;;;3.97;;
6787;SDS011;3431;47.966;10.268;2023-06-10T00:01:02;4.35;;;3.92;;
6787;SDS011;3431;47.966;10.268;2023-06-10T00:01:24;4.50;;;4.10;;
6787;SDS011;3431;47.966;10.268;2023-06-10T00:01:45;4.50;;;4.10;;
6787;SDS011;3431;47.966;10.268;2023-06-10T00:02:08;4.78;;;4.32;;
6787;SDS011;3431;47.966;10.268;2023-06-10T00:02:30;4.60;;;4.25;;
6787;SDS011;3431;47.966;10.268;2023-06-10T00:02:51;4.63;;;4.22;;
6787;SDS011;3431;47.966;10.268;2023-06-10T00:03:13;4.57;;;4.18;;
6787;SDS011;3431;47.966;10.268;2023-06-10T00:03:36;5.40;;;4.22;;
6787;SDS011;3431;47.966;10.268;2023-06-10T00:03:58;4.72;;;4.32;;
6787;SDS011;3431;47.966;10.268;2023-06-10T00:04:19;4.78;;;4.20;;
6787;SDS011;3431;47.966;10.268;2023-06-10T00:04:41;5.25;;;4.22;;
6787;SDS011;3431;47.966;10.268;2023-06-10T00:05:04;4.95;;;4.38;;
6787;SDS011;3431;47.966;10.268;2023-06-10T00:05:26;4.60;;;4.18;;
6787;SDS011;3431;47.966;10.268;2023-06-10T00:05:50;4.70;;;4.30;;
6787;SDS011;3431;47.966;10.268;2023-06-10T00:06:12;4.72;;;4.32;;
6787;SDS011;3431;47.966;10.268;2023-06-10T00:06:34;4.40;;;4.10;;
6787;SDS011;3431;47.966;10.268;2023-06-10T00:06:57;4.53;;;4.18;;
6787;SDS011;3431;47.966;10.268;2023-06-10T00:07:18;4.85;;;4.45;;
6787;SDS011;3431;47.966;10.268;2023-06-10T00:07:40;4.80;;;4.40;;
6787;SDS011;3431;47.966;10.268;2023-06-10T00:08:02;4.40;;;4.00;;
6787;SDS011;3431;47.966;10.268;2023-06-10T00:08:28;4.75;;;4.35;;
6787;SDS011;3431;47.966;10.268;2023-06-10T00:08:52;4.95;;;4.47;;
6787;SDS011;3431;47.966;10.268;2023-06-10T00:09:14;4.90;;;4.47;;
6787;SDS011;3431;47.966;10.268;2023-06-10T00:09:36;4.60;;;4.20;;
6787;SDS011;3431;47.966;10.268;2023-06-10T00:10:00;4.50;;;4.15;;
6787;SDS011;3431;47.966;10.268;2023-06-10T00:10:26;4.60;;;4.20;;
6787;SDS011;3431;47.966;10.268;2023-06-10T00:10:47;4.65;;;4.25;;
6787;SDS011;3431;47.966;10.268;2023-06-10T00:11:09;4.72;;;4.32;;
6787;SDS011;3431;47.966;10.268;2023-06-10T00:11:31;4.60;;;4.20;;
6787;SDS011;3431;47.966;10.268;2023-06-10T00:11:54;4.35;;;3.95;;
6787;SDS011;3431;47.966;10.268;2023-06-10T00:12:15;4.75;;;4.35;;
6787;SDS011;3431;47.966;10.268;2023-06-10T00:12:37;4.45;;;4.05;;
6787;SDS011;3431;47.966;10.268;2023-06-10T00:12:59;4.70;;;4.30;;
6787;SDS011;3431;47.966;10.268;2023-06-10T00:13:21;4.80;;;4.40;;
6787;SDS011;3431;47.966;10.268;2023-06-10T00:13:43;4.80;;;4.40;;
6787;SDS011;3431;47.966;10.268;2023-06-10T00:14:05;4.85;;;4.40;;
6787;SDS011;3431;47.966;10.268;2023-06-10T00:14:26;4.93;;;4.43;;
6787;SDS011;3431;47.966;10.268;2023-06-10T00:14:48;4.78;;;4.38;;
6787;SDS011;3431;47.966;10.268;2023-06-10T00:15:12;4.60;;;4.20;;
6787;SDS011;3431;47.966;10.268;2023-06-10T00:15:34;4.40;;;4.00;;
6787;SDS011;3431;47.966;10.268;2023-06-10T00:15:56;4.68;;;4.28;;
6787;SDS011;3431;47.966;10.268;2023-06-10T00:16:17;4.90;;;4.50;;
6787;SDS011;3431;47.966;10.268;2023-06-10T00:16:40;4.63;;;4.22;;
6787;SDS011;3431;47.966;10.268;2023-06-10T00:17:01;4.70;;;4.30;;
6787;SDS011;3431;47.966;10.268;2023-06-10T00:17:23;4.38;;;4.07;;
6787;SDS011;3431;47.966;10.268;2023-06-10T00:17:45;4.60;;;4.20;;
6787;SDS011;3431;47.966;10.268;2023-06-10T00:18:08;4.75;;;4.38;;
6787;SDS011;3431;47.966;10.268;2023-06-10T00:18:30;4.88;;;4.43;;
6787;SDS011;3431;47.966;10.268;2023-06-10T00:18:52;4.63;;;4.22;;
6787;SDS011;3431;47.966;10.268;2023-06-10T00:19:16;5.10;;;4.60;;
6787;SDS011;3431;47.966;10.268;2023-06-10T00:19:39;4.75;;;4.35;;
6787;SDS011;3431;47.966;10.268;2023-06-10T00:20:02;4.40;;;4.00;;
6787;SDS011;3431;47.966;10.268;2023-06-10T00:20:29;4.50;;;4.10;;
6787;SDS011;3431;47.966;10.268;2023-06-10T00:20:51;4.30;;;3.90;;
6787;SDS011;3431;47.966;10.268;2023-06-10T00:21:15;4.50;;;4.10;;
6787;SDS011;3431;47.966;10.268;2023-06-10T00:21:38;4.80;;;4.40;;
6787;SDS011;3431;47.966;10.268;2023-06-10T00:22:00;4.93;;;4.43;;
6787;SDS011;3431;47.966;10.268;2023-06-10T00:22:23;5.70;;;4.40;;
6787;SDS011;3431;47.966;10.268;2023-06-10T00:22:50;5.00;;;4.50;;
6787;SDS011;3431;47.966;10.268;2023-06-10T00:23:13;4.93;;;4.47;;
6787;SDS011;3431;47.966;10.268;2023-06-10T00:23:34;4.82;;;4.43;;
6787;SDS011;3431;47.966;10.268;2023-06-10T00:23:58;4.60;;;4.20;;
6787;SDS011;3431;47.966;10.268;2023-06-10T00:24:23;4.60;;;4.20;;
6787;SDS011;3431;47.966;10.268;2023-06-10T00:24:46;4.88;;;4.47;;
6787;SDS011;3431;47.966;10.268;2023-06-10T00:25:09;5.78;;;4.60;;
6787;SDS011;3431;47.966;10.268;2023-06-10T00:25:31;5.63;;;4.63;;
6787;SDS011;3431;47.966;10.268;2023-06-10T00:25:53;4.68;;;4.28;;
6787;SDS011;3431;47.966;10.268;2023-06-10T00:26:17;4.88;;;4.35;;
6787;SDS011;3431;47.966;10.268;2023-06-10T00:26:40;4.80;;;4.40;;
6787;SDS011;3431;47.966;10.268;2023-06-10T00:27:02;4.65;;;4.25;;
6787;SDS011;3431;47.966;10.268;2023-06-10T00:27:24;4.50;;;4.10;;
6787;SDS011;3431;47.966;10.268;2023-06-10T00:27:51;5.32;;;4.40;;
6787;SDS011;3431;47.966;10.268;2023-06-10T00:28:13;5.45;;;4.30;;
6787;SDS011;3431;47.966;10.268;2023-06-10T00:28:35;4.88;;;4.35;;
6787;SDS011;3431;47.966;10.268;2023-06-10T00:28:56;5.78;;;4.50;;
6787;SDS011;3431;47.966;10.268;2023-06-10T00:29:19;6.05;;;4.38;;
6787;SDS011;3431;47.966;10.268;2023-06-10T00:29:40;4.90;;;4.50;;
6787;SDS011;3431;47.966;10.268;2023-06-10T00:30:02;5.00;;;4.60;;
6787;SDS011;3431;47.966;10.268;2023-06-10T00:30:26;5.32;;;4.85;;
6787;SDS011;3431;47.966;10.268;2023-06-10T00:30:48;5.15;;;4.32;;
6787;SDS011;3431;47.966;10.268;2023-06-10T00:31:10;4.68;;;4.28;;
6787;SDS011;3431;47.966;10.268;2023-06-10T00:31:33;5.00;;;4.50;;
6787;SDS011;3431;47.966;10.268;2023-06-10T00:31:55;4.60;;;4.20;;
6787;SDS011;3431;47.966;10.268;2023-06-10T00:32:19;4.28;;;3.90;;
6787;SDS011;3431;47.966;10.268;2023-06-10T00:32:40;4.60;;;4.20;;
6787;SDS011;3431;47.966;10.268;2023-06-10T00:33:02;4.78;;;4.38;;
6787;SDS011;3431;47.966;10.268;2023-06-10T00:33:23;4.90;;;4.45;;
6787;SDS011;3431;47.966;10.268;2023-06-10T00:33:45;5.13;;;4.63;;
6787;SDS011;3431;47.966;10.268;2023-06-10T00:34:07;5.07;;;4.68;;
6787;SDS011;3431;47.966;10.268;2023-06-10T00:34:29;5.15;;;4.65;;
6787;SDS011;3431;47.966;10.268;2023-06-10T00:34:52;5.10;;;4.63;;
6787;SDS011;3431;47.966;10.268;2023-06-10T00:35:14;5.20;;;4.80;;
6787;SDS011;3431;47.966;10.268;2023-06-10T00:35:36;5.40;;;4.90;;
6787;SDS011;3431;47.966;10.268;2023-06-10T00:35:58;5.18;;;4.78;;
6787;SDS011;3431;47.966;10.268;2023-06-10T00:36:20;4.90;;;4.47;;
6787;SDS011;3431;47.966;10.268;2023-06-10T00:36:41;5.68;;;4.50;;
6787;SDS011;3431;47.966;10.268;2023-06-10T00:37:04;5.32;;;4.20;;
6787;SDS011;3431;47.966;10.268;2023-06-10T00:37:27;4.97;;;4.30;;
6787;SDS011;3431;47.966;10.268;2023-06-10T00:37:49;5.30;;;4.80;;
6787;SDS011;3431;47.966;10.268;2023-06-10T00:38:12;4.90;;;4.50;;
6787;SDS011;3431;47.966;10.268;2023-06-10T00:38:35;4.90;;;4.50;;
6787;SDS011;3431;47.966;10.268;2023-06-10T00:38:57;4.72;;;4.32;;
6787;SDS011;3431;47.966;10.268;2023-06-10T00:39:19;5.00;;;4.60;;
6787;SDS011;3431;47.966;10.268;2023-06-10T00:39:41;4.78;;;4.38;;
6787;SDS011;3431;47.966;10.268;2023-06-10T00:40:03;4.65;;;4.25;;
6787;SDS011;3431;47.966;10.268;2023-06-10T00:40:28;4.90;;;4.35;;
6787;SDS011;3431;47.966;10.268;2023-06-10T00:40:50;4.95;;;4.47;;
6787;SDS011;3431;47.966;10.268;2023-06-10T00:41:12;5.00;;;4.60;;
6787;SDS011;3431;47.966;10.268;2023-06-10T00:41:34;5.10;;;4.60;;
6787;SDS011;3431;47.966;10.268;2023-06-10T00:41:56;4.93;;;4.53;;
6787;SDS011;3431;47.966;10.268;2023-06-10T00:42:18;5.07;;;4.68;;
6787;SDS011;3431;47.966;10.268;2023-06-10T00:42:40;4.95;;;4.55;;
6787;SDS011;3431;47.966;10.268;2023-06-10T00:43:01;5.93;;;4.67;;
6787;SDS011;3431;47.966;10.268;2023-06-10T00:43:23;5.07;;;4.50;;
6787;SDS011;3431;47.966;10.268;2023-06-10T00:43:45;4.88;;;4.47;;
6787;SDS011;3431;47.966;10.268;2023-06-10T00:44:09;5.07;;;4.68;;
6787;SDS011;3431;47.966;10.268;2023-06-10T00:44:30;5.55;;;5.05;;
6787;SDS011;3431;47.966;10.268;2023-06-10T00:44:53;5.13;;;4.65;;
6787;SDS011;3431;47.966;10.268;2023-06-10T00:45:16;4.88;;;4.43;;
6787;SDS011;3431;47.966;10.268;2023-06-10T00:45:37;5.60;;;5.10;;
6787;SDS011;3431;47.966;10.268;2023-06-10T00:45:59;5.82;;;5.28;;
6787;SDS011;3431;47.966;10.268;2023-06-10T00:46:21;5.65;;;5.15;;
6787;SDS011;3431;47.966;10.268;2023-06-10T00:46:44;5.38;;;4.93;;
6787;SDS011;3431;47.966;10.268;2023-06-10T00:47:07;5.30;;;4.80;;
6787;SDS011;3431;47.966;10.268;2023-06-10T00:47:29;5.15;;;4.72;;
6787;SDS011;3431;47.966;10.268;2023-06-10T00:47:52;5.50;;;4.80;;
6787;SDS011;3431;47.966;10.268;2023-06-10T00:48:13;5.20;;;4.80;;
6787;SDS011;3431;47.966;10.268;2023-06-10T00:48:36;5.00;;;4.60;;
6787;SDS011;3431;47.966;10.268;2023-06-10T00:48:58;5.53;;;5.03;;
6787;SDS011;3431;47.966;10.268;2023-06-10T00:49:19;5.38;;;4.97;;
6787;SDS011;3431;47.966;10.268;2023-06-10T00:49:41;5.05;;;4.65;;
6787;SDS011;3431;47.966;10.268;2023-06-10T00:50:03;5.25;;;4.85;;
6787;SDS011;3431;47.966;10.268;2023-06-10T00:50:27;5.50;;;5.00;;
6787;SDS011;3431;47.966;10.268;2023-06-10T00:50:49;5.35;;;4.85;;
6787;SDS011;3431;47.966;10.268;2023-06-10T00:51:10;5.28;;;4.88;;
6787;SDS011;3431;47.966;10.268;2023-06-10T00:51:32;5.37;;;4.87;;
6787;SDS011;3431;47.966;10.268;2023-06-10T00:51:57;5.20;;;4.80;;
6787;SDS011;3431;47.966;10.268;2023-06-10T00:52:18;5.50;;;5.10;;
6787;SDS011;3431;47.966;10.268;2023-06-10T00:52:42;5.30;;;4.80;;
6787;SDS011;3431;47.966;10.268;2023-06-10T00:53:05;5.22;;;4.78;;
6787;SDS011;3431;47.966;10.268;2023-06-10T00:53:28;5.07;;;4.68;;
6787;SDS011;3431;47.966;10.268;2023-06-10T00:53:50;5.20;;;4.80;;
6787;SDS011;3431;47.966;10.268;2023-06-10T00:54:14;5.32;;;4.82;;
6787;SDS011;3431;47.966;10.268;2023-06-10T00:54:36;5.05;;;4.55;;
6787;SDS011;3431;47.966;10.268;2023-06-10T00:54:59;4.97;;;4.57;;
6787;SDS011;3431;47.966;10.268;2023-06-10T00:55:22;5.32;;;4.82;;
6787;SDS011;3431;47.966;10.268;2023-06-10T00:55:46;5.83;;;5.00;;
6787;SDS011;3431;47.966;10.268;2023-06-10T00:56:08;5.15;;;4.55;;
6787;SDS011;3431;47.966;10.268;2023-06-10T00:56:31;5.50;;;5.00;;
6787;SDS011;3431;47.966;10.268;2023-06-10T00:56:56;5.40;;;5.00;;
6787;SDS011;3431;47.966;10.268;2023-06-10T00:57:18;5.70;;;5.20;;
6787;SDS011;3431;47.966;10.268;2023-06-10T00:57:40;5.53;;;5.13;;
6787;SDS011;3431;47.966;10.268;2023-06-10T00:58:05;5.30;;;4.90;;
6787;SDS011;3431;47.966;10.268;2023-06-10T00:58:27;5.40;;;5.00;;
6787;SDS011;3431;47.966;10.268;2023-06-10T00:58:50;5.30;;;4.80;;
6787;SDS011;3431;47.966;10.268;2023-06-10T00:59:12;5.10;;;4.60;;
6787;SDS011;3431;47.966;10.268;2023-06-10T00:59:35;4.97;;;4.57;;
6787;SDS011;3431;47.966;10.268;2023-06-10T00:59:56;5.20;;;4.70;;
6787;SDS011;3431;47.966;10.268;2023-06-10T01:00:18;5.07;;;4.68;;
6787;SDS011;3431;47.966;10.268;2023-06-10T01:00:41;5.45;;;4.95;;
6787;SDS011;3431;47.966;10.268;2023-06-10T01:01:03;5.40;;;4.90;;
6787;SDS011;3431;47.966;10.268;2023-06-10T01:01:24;5.20;;;4.70;;
6787;SDS011;3431;47.966;10.268;2023-06-10T01:01:48;5.20;;;4.80;;
6787;SDS011;3431;47.966;10.268;2023-06-10T01:02:12;5.55;;;5.05;;
6787;SDS011;3431;47.966;10.268;2023-06-10T01:02:34;5.50;;;5.00;;
6787;SDS011;3431;47.966;10.268;2023-06-10T01:02:56;5.25;;;4.75;;
6787;SDS011;3431;47.966;10.268;2023-06-10T01:03:18;4.90;;;4.50;;
6787;SDS011;3431;47.966;10.268;2023-06-10T01:03:42;5.10;;;4.70;;
6787;SDS011;3431;47.966;10.268;2023-06-10T01:04:03;5.35;;;4.85;;
6787;SDS011;3431;47.966;10.268;2023-06-10T01:04:25;5.22;;;4.72;;
6787;SDS011;3431;47.966;10.268;2023-06-10T01:04:46;5.28;;;4.78;;
6787;SDS011;3431;47.966;10.268;2023-06-10T01:05:10;5.22;;;4.75;;
6787;SDS011;3431;47.966;10.268;2023-06-10T01:05:32;5.63;;;4.90;;
6787;SDS011;3431;47.966;10.268;2023-06-10T01:05:57;5.28;;;4.78;;
6787;SDS011;3431;47.966;10.268;2023-06-10T01:06:27;4.80;;;4.40;;
6787;SDS011;3431;47.966;10.268;2023-06-10T01:06:56;4.85;;;4.45;;
6787;SDS011;3431;47.966;10.268;2023-06-10T01:07:25;5.22;;;4.82;;
6787;SDS011;3431;47.966;10.268;2023-06-10T01:07:56;5.30;;;4.80;;
6787;SDS011;3431;47.966;10.268;2023-06-10T01:08:25;4.90;;;4.50;;
6787;SDS011;3431;47.966;10.268;2023-06-10T01:08:55;5.05;;;4.65;;
6787;SDS011;3431;47.966;10.268;2023-06-10T01:09:22;5.32;;;4.93;;
6787;SDS011;3431;47.966;10.268;2023-06-10T01:09:52;4.97;;;4.57;;
6787;SDS011;3431;47.966;10.268;2023-06-10T01:10:19;5.15;;;4.75;;
6787;SDS011;3431;47.966;10.268;2023-06-10T01:10:46;5.15;;;4.53;;
6787;SDS011;3431;47.966;10.268;2023-06-10T01:11:17;5.53;;;5.03;;
6787;SDS011;3431;47.966;10.268;2023-06-10T01:11:45;5.32;;;4.85;;
6787;SDS011;3431;47.966;10.268;2023-06-10T01:12:12;4.78;;;4.38;;
6787;SDS011;3431;47.966;10.268;2023-06-10T01:12:41;4.80;;;4.40;;
6787;SDS011;3431;47.966;10.268;2023-06-10T01:13:09;5.32;;;4.90;;
6787;SDS011;3431;47.966;10.268;2023-06-10T01:13:32;5.50;;;5.00;;
6787;SDS011;3431;47.966;10.268;2023-06-10T01:13:58;5.63;;;5.13;;
6787;SDS011;3431;47.966;10.268;2023-06-10T01:14:21;5.50;;;5.00;;
6787;SDS011;3431;47.966;10.268;2023-06-10T01:14:44;4.95;;;4.55;;
6787;SDS011;3431;47.966;10.268;2023-06-10T01:15:07;5.43;;;4.93;;
6787;SDS011;3431;47.966;10.268;2023-06-10T01:15:30;5.43;;;4.93;;
6787;SDS011;3431;47.966;10.268;2023-06-10T01:15:52;5.25;;;4.75;;
6787;SDS011;3431;47.966;10.268;2023-06-10T01:16:15;4.50;;;4.20;;
6787;SDS011;3431;47.966;10.268;2023-06-10T01:16:38;4.90;;;4.50;;
6787;SDS011;3431;47.966;10.268;2023-06-10T01:17:01;5.57;;;5.07;;
6787;SDS011;3431;47.966;10.268;2023-06-10T01:17:24;5.55;;;5.05;;
6787;SDS011;3431;47.966;10.268;2023-06-10T01:17:54;4.97;;;4.47;;
6787;SDS011;3431;47.966;10.268;2023-06-10T01:18:17;4.95;;;4.47;;
6787;SDS011;3431;47.966;10.268;2023-06-10T01:18:40;5.22;;;4.75;;
6787;SDS011;3431;47.966;10.268;2023-06-10T01:19:02;5.60;;;5.00;;
6787;SDS011;3431;47.966;10.268;2023-06-10T01:19:25;5.28;;;4.78;;
6787;SDS011;3431;47.966;10.268;2023-06-10T01:19:52;4.80;;;4.40;;
6787;SDS011;3431;47.966;10.268;2023-06-10T01:20:16;5.55;;;4.85;;
6787;SDS011;3431;47.966;10.268;2023-06-10T01:20:38;6.20;;;4.60;;
6787;SDS011;3431;47.966;10.268;2023-06-10T01:21:01;5.10;;;4.60;;
6787;SDS011;3431;47.966;10.268;2023-06-10T01:21:24;5.20;;;4.70;;
6787;SDS011;3431;47.966;10.268;2023-06-10T01:21:45;5.10;;;4.60;;
6787;SDS011;3431;47.966;10.268;2023-06-10T01:22:09;5.25;;;4.78;;
6787;SDS011;3431;47.966;10.268;2023-06-10T01:22:31;5.00;;;4.60;;
6787;SDS011;3431;47.966;10.268;2023-06-10T01:22:57;5.15;;;4.75;;
6787;SDS011;3431;47.966;10.268;2023-06-10T01:23:19;5.03;;;4.63;;
6787;SDS011;3431;47.966;10.268;2023-06-10T01:23:41;5.10;;;4.70;;
6787;SDS011;3431;47.966;10.268;2023-06-10T01:24:02;5.10;;;4.60;;
6787;SDS011;3431;47.966;10.268;2023-06-10T01:24:28;5.10;;;4.70;;
6787;SDS011;3431;47.966;10.268;2023-06-10T01:24:54;5.30;;;4.80;;
6787;SDS011;3431;47.966;10.268;2023-06-10T01:25:20;5.55;;;5.05;;
6787;SDS011;3431;47.966;10.268;2023-06-10T01:25:49;5.18;;;4.78;;
6787;SDS011;3431;47.966;10.268;2023-06-10T01:26:17;5.38;;;4.88;;
6787;SDS011;3431;47.966;10.268;2023-06-10T01:26:40;5.40;;;4.90;;
6787;SDS011;3431;47.966;10.268;2023-06-10T01:27:05;4.60;;;4.20;;
6787;SDS011;3431;47.966;10.268;2023-06-10T01:27:32;5.13;;;4.63;;
6787;SDS011;3431;47.966;10.268;2023-06-10T01:28:02;5.22;;;4.70;;
6787;SDS011;3431;47.966;10.268;2023-06-10T01:28:29;4.70;;;4.30;;
6787;SDS011;3431;47.966;10.268;2023-06-10T01:28:57;5.80;;;5.27;;
6787;SDS011;3431;47.966;10.268;2023-06-10T01:29:24;5.07;;;4.63;;
6787;SDS011;3431;47.966;10.268;2023-06-10T01:29:54;5.60;;;4.70;;
6787;SDS011;3431;47.966;10.268;2023-06-10T01:30:25;4.80;;;4.40;;
6787;SDS011;3431;47.966;10.268;2023-06-10T01:30:55;5.65;;;4.90;;
6787;SDS011;3431;47.966;10.268;2023-06-10T01:31:37;4.80;;;4.40;;
6787;SDS011;3431;47.966;10.268;2023-06-10T01:32:04;5.40;;;4.90;;
6787;SDS011;3431;47.966;10.268;2023-06-10T01:32:32;5.00;;;4.60;;
6787;SDS011;3431;47.966;10.268;2023-06-10T01:32:58;5.70;;;5.00;;
6787;SDS011;3431;47.966;10.268;2023-06-10T01:33:24;5.53;;;5.03;;
6787;SDS011;3431;47.966;10.268;2023-06-10T01:33:51;5.20;;;4.78;;
6787;SDS011;3431;47.966;10.268;2023-06-10T01:34:14;5.07;;;4.68;;
6787;SDS011;3431;47.966;10.268;2023-06-10T01:34:38;5.38;;;4.93;;
6787;SDS011;3431;47.966;10.268;2023-06-10T01:35:03;5.25;;;4.65;;
6787;SDS011;3431;47.966;10.268;2023-06-10T01:35:31;5.07;;;4.57;;
6787;SDS011;3431;47.966;10.268;2023-06-10T01:35:55;5.15;;;4.65;;
6787;SDS011;3431;47.966;10.268;2023-06-10T01:36:19;5.40;;;4.90;;
6787;SDS011;3431;47.966;10.268;2023-06-10T01:36:45;5.53;;;4.85;;
6787;SDS011;3431;47.966;10.268;2023-06-10T01:37:09;6.32;;;4.95;;
6787;SDS011;3431;47.966;10.268;2023-06-10T01:37:34;5.50;;;5.00;;
6787;SDS011;3431;47.966;10.268;2023-06-10T01:37:58;5.18;;;4.75;;
6787;SDS011;3431;47.966;10.268;2023-06-10T01:38:22;5.60;;;5.10;;
6787;SDS011;3431;47.966;10.268;2023-06-10T01:38:47;5.97;;;5.40;;
6787;SDS011;3431;47.966;10.268;2023-06-10T01:39:10;5.43;;;4.93;;
6787;SDS011;3431;47.966;10.268;2023-06-10T01:39:32;5.28;;;4.88;;
6787;SDS011;3431;47.966;10.268;2023-06-10T01:39:55;5.45;;;4.95;;
6787;SDS011;3431;47.966;10.268;2023-06-10T01:40:19;5.70;;;5.18;;
6787;SDS011;3431;47.966;10.268;2023-06-10T01:40:41;5.72;;;5.07;;
6787;SDS011;3431;47.966;10.268;2023-06-10T01:41:04;5.80;;;5.20;;
6787;SDS011;3431;47.966;10.268;2023-06-10T01:41:28;6.22;;;5.20;;
6787;SDS011;3431;47.966;10.268;2023-06-10T01:41:50;5.70;;;5.20;;
6787;SDS011;3431;47.966;10.268;2023-06-10T01:42:13;6.70;;;5.63;;
6787;SDS011;3431;47.966;10.268;2023-06-10T01:42:36;5.75;;;5.30;;
6787;SDS011;3431;47.966;10.268;2023-06-10T01:42:58;6.32;;;5.30;;
6787;SDS011;3431;47.966;10.268;2023-06-10T01:43:20;5.85;;;5.10;;
6787;SDS011;3431;47.966;10.268;2023-06-10T01:43:42;6.03;;;5.38;;
6787;SDS011;3431;47.966;10.268;2023-06-10T01:44:04;5.88;;;5.28;;
6787;SDS011;3431;47.966;10.268;2023-06-10T01:44:26;5.78;;;5.28;;
6787;SDS011;3431;47.966;10.268;2023-06-10T01:44:48;6.18;;;5.63;;
6787;SDS011;3431;47.966;10.268;2023-06-10T01:45:10;6.40;;;5.90;;
6787;SDS011;3431;47.966;10.268;2023-06-10T01:45:31;6.38;;;5.88;;
6787;SDS011;3431;47.966;10.268;2023-06-10T01:45:54;6.00;;;5.45;;
6787;SDS011;3431;47.966;10.268;2023-06-10T01:46:15;6.85;;;5.80;;
6787;SDS011;3431;47.966;10.268;2023-06-10T01:46:40;6.50;;;5.93;;
6787;SDS011;3431;47.966;10.268;2023-06-10T01:47:02;6.20;;;5.60;;
6787;SDS011;3431;47.966;10.268;2023-06-10T01:47:25;6.05;;;5.45;;
6787;SDS011;3431;47.966;10.268;2023-06-10T01:47:47;5.80;;;5.30;;
6787;SDS011;3431;47.966;10.268;2023-06-10T01:48:08;6.15;;;5.55;;
6787;SDS011;3431;47.966;10.268;2023-06-10T01:48:30;6.53;;;6.00;;
6787;SDS011;3431;47.966;10.268;2023-06-10T01:48:53;6.40;;;5.80;;
6787;SDS011;3431;47.966;10.268;2023-06-10T01:49:15;5.70;;;5.20;;
6787;SDS011;3431;47.966;10.268;2023-06-10T01:49:38;5.88;;;5.38;;
6787;SDS011;3431;47.966;10.268;2023-06-10T01:50:02;6.20;;;5.60;;
6787;SDS011;3431;47.966;10.268;2023-06-10T01:50:25;5.63;;;5.13;;
6787;SDS011;3431;47.966;10.268;2023-06-10T01:50:46;5.88;;;5.38;;
6787;SDS011;3431;47.966;10.268;2023-06-10T01:51:08;5.85;;;5.35;;
6787;SDS011;3431;47.966;10.268;2023-06-10T01:51:31;6.75;;;5.43;;
6787;SDS011;3431;47.966;10.268;2023-06-10T01:51:54;5.88;;;5.38;;
6787;SDS011;3431;47.966;10.268;2023-06-10T01:52:16;6.15;;;5.55;;
6787;SDS011;3431;47.966;10.268;2023-06-10T01:52:38;6.35;;;5.75;;
6787;SDS011;3431;47.966;10.268;2023-06-10T01:52:59;6.22;;;5.72;;
6787;SDS011;3431;47.966;10.268;2023-06-10T01:53:22;6.10;;;5.50;;
6787;SDS011;3431;47.966;10.268;2023-06-10T01:53:43;6.03;;;5.43;;
6787;SDS011;3431;47.966;10.268;2023-06-10T01:54:06;6.22;;;5.63;;
6787;SDS011;3431;47.966;10.268;2023-06-10T01:54:27;5.83;;;5.33;;
6787;SDS011;3431;47.966;10.268;2023-06-10T01:54:49;6.20;;;5.60;;
6787;SDS011;3431;47.966;10.268;2023-06-10T01:55:10;5.93;;;5.40;;
6787;SDS011;3431;47.966;10.268;2023-06-10T01:55:34;6.13;;;5.63;;
6787;SDS011;3431;47.966;10.268;2023-06-10T01:55:57;6.28;;;5.70;;
6787;SDS011;3431;47.966;10.268;2023-06-10T01:56:19;6.57;;;5.88;;
6787;SDS011;3431;47.966;10.268;2023-06-10T01:56:41;5.90;;;5.38;;
6787;SDS011;3431;47.966;10.268;2023-06-10T01:57:03;6.07;;;5.57;;
6787;SDS011;3431;47.966;10.268;2023-06-10T01:57:26;6.15;;;5.63;;
6787;SDS011;3431;47.966;10.268;2023-06-10T01:57:49;6.80;;;6.20;;
6787;SDS011;3431;47.966;10.268;2023-06-10T01:58:10;6.03;;;5.53;;
6787;SDS011;3431;47.966;10.268;2023-06-10T01:58:32;6.20;;;5.70;;
6787;SDS011;3431;47.966;10.268;2023-06-10T01:58:54;6.57;;;6.03;;
6787;SDS011;3431;47.966;10.268;2023-06-10T01:59:19;6.85;;;6.15;;
6787;SDS011;3431;47.966;10.268;2023-06-10T01:59:42;6.60;;;6.00;;
6787;SDS011;3431;47.966;10.268;2023-06-10T02:00:05;6.10;;;5.60;;
6787;SDS011;3431;47.966;10.268;2023-06-10T02:00:36;6.07;;;5.57;;
6787;SDS011;3431;47.966;10.268;2023-06-10T02:00:58;6.55;;;5.95;;
6787;SDS011;3431;47.966;10.268;2023-06-10T02:01:20;6.22;;;5.72;;
6787;SDS011;3431;47.966;10.268;2023-06-10T02:01:41;6.47;;;5.88;;
6787;SDS011;3431;47.966;10.268;2023-06-10T02:02:05;6.00;;;5.50;;
6787;SDS011;3431;47.966;10.268;2023-06-10T02:02:26;5.75;;;5.25;;
6787;SDS011;3431;47.966;10.268;2023-06-10T02:02:49;6.53;;;5.93;;
6787;SDS011;3431;47.966;10.268;2023-06-10T02:03:11;6.82;;;6.22;;
6787;SDS011;3431;47.966;10.268;2023-06-10T02:03:33;6.18;;;5.68;;
6787;SDS011;3431;47.966;10.268;2023-06-10T02:03:54;6.15;;;5.65;;
6787;SDS011;3431;47.966;10.268;2023-06-10T02:04:17;5.93;;;5.43;;
6787;SDS011;3431;47.966;10.268;2023-06-10T02:04:39;6.53;;;6.03;;
6787;SDS011;3431;47.966;10.268;2023-06-10T02:05:00;6.30;;;5.70;;
6787;SDS011;3431;47.966;10.268;2023-06-10T02:05:22;6.13;;;5.63;;
6787;SDS011;3431;47.966;10.268;2023-06-10T02:05:44;6.13;;;5.60;;
6787;SDS011;3431;47.966;10.268;2023-06-10T02:06:06;6.90;;;6.30;;
6787;SDS011;3431;47.966;10.268;2023-06-10T02:06:28;6.95;;;6.25;;
6787;SDS011;3431;47.966;10.268;2023-06-10T02:06:50;7.13;;;6.50;;
6787;SDS011;3431;47.966;10.268;2023-06-10T02:07:13;6.33;;;5.70;;
6787;SDS011;3431;47.966;10.268;2023-06-10T02:07:36;6.40;;;5.80;;
6787;SDS011;3431;47.966;10.268;2023-06-10T02:07:58;6.22;;;5.63;;
6787;SDS011;3431;47.966;10.268;2023-06-10T02:08:20;6.40;;;5.80;;
6787;SDS011;3431;47.966;10.268;2023-06-10T02:08:41;6.57;;;6.03;;
6787;SDS011;3431;47.966;10.268;2023-06-10T02:09:03;5.97;;;5.47;;
6787;SDS011;3431;47.966;10.268;2023-06-10T02:09:25;6.25;;;5.75;;
6787;SDS011;3431;47.966;10.268;2023-06-10T02:09:47;6.40;;;5.80;;
6787;SDS011;3431;47.966;10.268;2023-06-10T02:10:09;6.20;;;5.63;;
6787;SDS011;3431;47.966;10.268;2023-06-10T02:10:30;6.30;;;5.70;;
6787;SDS011;3431;47.966;10.268;2023-06-10T02:10:52;6.95;;;5.75;;
6787;SDS011;3431;47.966;10.268;2023-06-10T02:11:15;6.47;;;5.88;;
6787;SDS011;3431;47.966;10.268;2023-06-10T02:11:36;6.28;;;5.78;;
6787;SDS011;3431;47.966;10.268;2023-06-10T02:11:58;6.45;;;5.88;;
6787;SDS011;3431;47.966;10.268;2023-06-10T02:12:19;6.10;;;5.60;;
6787;SDS011;3431;47.966;10.268;2023-06-10T02:12:42;6.32;;;5.72;;
6787;SDS011;3431;47.966;10.268;2023-06-10T02:13:03;5.90;;;5.40;;
6787;SDS011;3431;47.966;10.268;2023-06-10T02:13:25;6.03;;;5.53;;
6787;SDS011;3431;47.966;10.268;2023-06-10T02:13:48;6.43;;;5.82;;
6787;SDS011;3431;47.966;10.268;2023-06-10T02:14:11;6.35;;;5.80;;
6787;SDS011;3431;47.966;10.268;2023-06-10T02:14:32;6.75;;;6.15;;
6787;SDS011;3431;47.966;10.268;2023-06-10T02:14:54;6.53;;;5.93;;
6787;SDS011;3431;47.966;10.268;2023-06-10T02:15:16;6.17;;;5.60;;
6787;SDS011;3431;47.966;10.268;2023-06-10T02:15:37;6.45;;;5.90;;
6787;SDS011;3431;47.966;10.268;2023-06-10T02:16:00;5.97;;;5.47;;
6787;SDS011;3431;47.966;10.268;2023-06-10T02:16:24;6.45;;;5.85;;
6787;SDS011;3431;47.966;10.268;2023-06-10T02:16:45;6.32;;;5.72;;
6787;SDS011;3431;47.966;10.268;2023-06-10T02:17:07;6.72;;;6.13;;
6787;SDS011;3431;47.966;10.268;2023-06-10T02:17:33;6.40;;;5.80;;
6787;SDS011;3431;47.966;10.268;2023-06-10T02:17:55;6.45;;;5.80;;
6787;SDS011;3431;47.966;10.268;2023-06-10T02:18:17;6.43;;;5.88;;
6787;SDS011;3431;47.966;10.268;2023-06-10T02:18:46;7.07;;;6.47;;
6787;SDS011;3431;47.966;10.268;2023-06-10T02:19:07;6.43;;;5.85;;
6787;SDS011;3431;47.966;10.268;2023-06-10T02:19:29;6.00;;;5.50;;
6787;SDS011;3431;47.966;10.268;2023-06-10T02:19:51;6.30;;;5.80;;
6787;SDS011;3431;47.966;10.268;2023-06-10T02:20:15;6.15;;;5.65;;
6787;SDS011;3431;47.966;10.268;2023-06-10T02:20:37;6.60;;;6.00;;
6787;SDS011;3431;47.966;10.268;2023-06-10T02:20:59;6.35;;;5.60;;
6787;SDS011;3431;47.966;10.268;2023-06-10T02:21:21;6.20;;;5.50;;
6787;SDS011;3431;47.966;10.268;2023-06-10T02:21:43;6.18;;;5.68;;